Time;durP1;ratioP1;P1;durP2;ratioP2;P2;SDS_P1;SDS_P2;PMS_P1;PMS_P2;Temp;Humidity;BMP_temperature;BMP_pressure;BME280_temperature;BME280_humidity;BME280_pressure;Samples;Min_cycle;Max_cycle;Signal;HPM_P1;HPM_P2
2023/10/17 00:02:00;;;;;;;;;;;;;;;17.55;49.76;102127.91;4944617;29;20493;-87
2023/10/17 00:04:28;;;;;;;;;;;;;;;17.53;49.73;102134.88;4937467;28;19922;-88
2023/10/17 00:06:54;;;;;;;;;;;;;;;17.52;49.84;102125.13;4942434;28;19919;-86
2023/10/17 00:09:26;;;;;;;;;;;;;;;17.53;49.80;102120.75;4934767;29;19914;-87
2023/10/17 00:14:23;;;;;;;;;;;;;;;17.48;50.00;102120.50;4940023;28;19925;-88
2023/10/17 00:16:49;;;;;;;;;;;;;;;17.46;49.82;102117.81;4937451;29;19981;-87
2023/10/17 00:19:16;;;;;;;;;;;;;;;17.46;49.69;102115.19;4937055;29;19914;-87
2023/10/17 00:21:43;;;;;;;;;;;;;;;17.46;49.66;102114.25;4936546;29;19961;-87
2023/10/17 00:24:09;;;;;;;;;;;;;;;17.45;49.66;102113.34;4953528;28;19941;-88
2023/10/17 00:26:37;;;;;;;;;;;;;;;17.44;49.88;102116.84;4934322;28;20404;-87
2023/10/17 00:29:05;;;;;;;;;;;;;;;17.42;49.82;102115.88;4952226;28;19974;-87
2023/10/17 00:31:31;;;;;;;;;;;;;;;17.41;49.73;102110.50;4943478;29;19914;-87
2023/10/17 00:34:12;;;;;;;;;;;;;;;17.38;49.65;102111.28;4952988;29;19950;-87
2023/10/17 00:37:00;;;;;;;;;;;;;;;17.38;49.86;102103.34;4952508;29;20490;-87
2023/10/17 00:39:31;;;;;;;;;;;;;;;17.35;49.92;102097.91;4952885;28;19919;-88
2023/10/17 00:44:32;;;;;;;;;;;;;;;17.38;49.80;102094.53;4938976;28;19914;-87
2023/10/17 00:50:12;;;;;;;;;;;;;;;17.35;49.57;102097.91;4947753;28;20407;-86
2023/10/17 00:52:38;;;;;;;;;;;;;;;17.35;49.62;102100.53;4946197;28;19923;-86
2023/10/17 00:55:04;;;;;;;;;;;;;;;17.35;49.68;102102.28;4933723;29;20010;-86
2023/10/17 00:57:29;;;;;;;;;;;;;;;17.30;49.78;102104.72;4946875;28;19945;-87
2023/10/17 00:59:55;;;;;;;;;;;;;;;17.35;49.56;102099.66;4936523;29;19926;-87
2023/10/17 01:02:29;;;;;;;;;;;;;;;17.33;49.52;102098.66;4937213;29;19953;-86
2023/10/17 01:04:58;;;;;;;;;;;;;;;17.29;49.54;102097.59;4925583;29;20376;-87
2023/10/17 01:07:37;;;;;;;;;;;;;;;17.33;49.76;102096.03;4951530;28;20303;-87
2023/10/17 01:10:26;;;;;;;;;;;;;;;17.60;49.52;102083.22;4927408;29;19937;-87
2023/10/17 01:13:08;;;;;;;;;;;;;;;17.64;50.58;102088.72;4942936;28;20006;-88
2023/10/17 01:15:44;;;;;;;;;;;;;;;17.64;50.70;102087.81;4938001;29;19960;-87
2023/10/17 01:18:16;;;;;;;;;;;;;;;17.66;50.86;102081.75;4942598;29;19921;-88
2023/10/17 01:20:44;;;;;;;;;;;;;;;17.47;50.43;102087.94;4945603;29;19974;-88
2023/10/17 01:23:11;;;;;;;;;;;;;;;17.21;50.60;102088.44;4936576;29;20001;-87
2023/10/17 01:25:41;;;;;;;;;;;;;;;17.17;50.59;102092.66;4945557;29;19974;-88
2023/10/17 01:31:09;;;;;;;;;;;;;;;17.16;50.32;102084.66;4946790;29;19921;-88
2023/10/17 01:33:35;;;;;;;;;;;;;;;17.12;50.21;102091.53;4950165;29;19923;-87
2023/10/17 01:36:01;;;;;;;;;;;;;;;17.13;50.13;102092.44;4951685;29;20033;-87
2023/10/17 01:38:28;;;;;;;;;;;;;;;17.13;50.16;102093.34;4953294;28;20339;-87
2023/10/17 01:40:57;;;;;;;;;;;;;;;17.12;50.14;102088.88;4946252;28;20285;-87
2023/10/17 01:43:23;;;;;;;;;;;;;;;17.12;50.10;102093.25;4931300;28;19918;-87
2023/10/17 01:45:50;;;;;;;;;;;;;;;17.08;50.05;102089.56;4943887;29;20424;-88
2023/10/17 01:48:15;;;;;;;;;;;;;;;17.11;49.95;102095.00;4936534;28;19915;-88
2023/10/17 01:50:41;;;;;;;;;;;;;;;17.07;50.04;102096.59;4951796;29;19985;-87
2023/10/17 01:53:15;;;;;;;;;;;;;;;17.07;50.07;102093.03;4935010;29;20320;-88
2023/10/17 01:55:42;;;;;;;;;;;;;;;17.05;50.06;102095.59;4936269;28;19921;-88
2023/10/17 01:58:15;;;;;;;;;;;;;;;17.17;49.96;102100.59;4941636;29;19930;-87
2023/10/17 02:00:42;;;;;;;;;;;;;;;17.36;50.09;102091.81;4943949;29;19952;-88
2023/10/17 02:03:07;;;;;;;;;;;;;;;17.46;50.89;102098.41;4948859;29;20434;-89
2023/10/17 02:05:36;;;;;;;;;;;;;;;17.49;50.66;102091.53;4951124;29;19958;-88
2023/10/17 02:08:01;;;;;;;;;;;;;;;17.40;51.73;102096.41;4933121;29;20005;-88
2023/10/17 02:10:30;;;;;;;;;;;;;;;17.28;51.11;102090.53;4933462;28;20611;-88
2023/10/17 02:12:55;;;;;;;;;;;;;;;17.18;50.68;102088.28;4930107;29;19974;-88
2023/10/17 02:15:24;;;;;;;;;;;;;;;17.04;50.50;102085.88;4932743;28;19927;-88
2023/10/17 02:17:52;;;;;;;;;;;;;;;16.96;50.75;102094.25;4966780;28;19984;-88
2023/10/17 02:20:34;;;;;;;;;;;;;;;16.97;50.35;102086.41;4950675;28;20615;-88
2023/10/17 02:23:08;;;;;;;;;;;;;;;16.89;50.49;102086.03;4932690;28;20392;-89
2023/10/17 02:25:41;;;;;;;;;;;;;;;16.96;50.39;102089.88;4932767;28;20324;-89
2023/10/17 02:28:07;;;;;;;;;;;;;;;16.91;50.44;102090.47;4944888;28;20687;-89
2023/10/17 02:30:32;;;;;;;;;;;;;;;16.91;50.19;102091.38;4930482;28;19931;-89
2023/10/17 02:33:00;;;;;;;;;;;;;;;16.88;50.36;102091.25;4938653;28;19965;-89
2023/10/17 02:35:35;;;;;;;;;;;;;;;16.89;50.22;102087.78;4954323;28;19918;-87
2023/10/17 02:38:03;;;;;;;;;;;;;;;16.91;50.17;102080.81;4956385;28;19918;-87
2023/10/17 02:40:34;;;;;;;;;;;;;;;16.85;50.29;102084.09;4940768;28;19945;-87
2023/10/17 02:43:02;;;;;;;;;;;;;;;16.88;50.15;102085.97;4933263;29;19961;-88
2023/10/17 02:45:27;;;;;;;;;;;;;;;16.85;50.17;102080.53;4941821;28;19914;-88
2023/10/17 02:47:54;;;;;;;;;;;;;;;16.86;50.50;102083.22;4955049;28;19941;-88
2023/10/17 02:52:58;;;;;;;;;;;;;;;17.23;51.55;102087.69;4954057;28;19926;-89
2023/10/17 02:55:25;;;;;;;;;;;;;;;17.24;51.43;102088.59;4955046;28;19925;-90
2023/10/17 02:57:52;;;;;;;;;;;;;;;17.18;51.74;102088.28;4926081;28;19919;-88
2023/10/17 03:00:33;;;;;;;;;;;;;;;17.03;51.13;102076.16;4943109;28;19925;-91
2023/10/17 03:02:59;;;;;;;;;;;;;;;16.80;51.24;102077.66;4939924;28;19918;-88
2023/10/17 03:05:27;;;;;;;;;;;;;;;16.83;50.83;102088.38;4955141;28;19921;-88
2023/10/17 03:07:53;;;;;;;;;;;;;;;16.79;50.85;102093.41;4937658;29;20001;-89
2023/10/17 03:10:40;;;;;;;;;;;;;;;16.77;50.58;102084.50;4930262;28;20452;-89
2023/10/17 03:13:41;;;;;;;;;;;;;;;16.73;50.60;102083.44;4946132;28;20009;-87
2023/10/17 03:16:14;;;;;;;;;;;;;;;16.74;50.66;102086.97;4946422;28;19929;-90
2023/10/17 03:18:40;;;;;;;;;;;;;;;16.80;50.51;102088.22;4955071;29;19918;-89
2023/10/17 03:21:08;;;;;;;;;;;;;;;16.76;50.43;102085.31;4954788;28;19918;-88
2023/10/17 03:23:34;;;;;;;;;;;;;;;16.71;50.35;102074.53;4924905;28;19929;-89
2023/10/17 03:26:03;;;;;;;;;;;;;;;16.72;50.49;102080.72;4941053;29;19923;-89
2023/10/17 03:28:29;;;;;;;;;;;;;;;16.72;50.18;102079.00;4936614;28;19914;-88
2023/10/17 03:30:55;;;;;;;;;;;;;;;16.69;50.28;102078.81;4923226;29;19923;-90
2023/10/17 03:33:26;;;;;;;;;;;;;;;16.69;50.13;102081.47;4931861;29;20389;-88
2023/10/17 03:38:27;;;;;;;;;;;;;;;16.83;50.73;102091.00;4955077;29;20380;-89
2023/10/17 03:41:02;;;;;;;;;;;;;;;17.01;50.96;102087.47;4945651;28;19973;-89
2023/10/17 03:43:38;;;;;;;;;;;;;;;17.07;51.47;102080.75;4954474;28;20001;-89
2023/10/17 03:46:06;;;;;;;;;;;;;;;17.09;51.50;102079.09;4954465;29;19921;-88
2023/10/17 03:48:36;;;;;;;;;;;;;;;16.93;51.68;102084.44;4952309;28;19925;-88
2023/10/17 03:53:32;;;;;;;;;;;;;;;16.56;51.38;102082.59;4953075;28;19922;-88
2023/10/17 03:56:01;;;;;;;;;;;;;;;16.62;51.17;102084.63;4941670;29;19962;-89
2023/10/17 04:00:54;;;;;;;;;;;;;;;16.68;50.57;102083.22;4947695;28;19919;-89
2023/10/17 04:03:25;;;;;;;;;;;;;;;16.59;50.48;102069.53;4936556;28;19918;-89
2023/10/17 04:05:52;;;;;;;;;;;;;;;16.55;50.67;102083.44;4933054;28;20017;-89
2023/10/17 04:08:26;;;;;;;;;;;;;;;16.58;50.40;102073.03;4937016;29;20396;-88
2023/10/17 04:11:09;;;;;;;;;;;;;;;16.54;50.57;102076.31;4950937;29;20000;-88
2023/10/17 04:13:38;;;;;;;;;;;;;;;16.55;50.47;102079.84;4932722;29;20570;-88
2023/10/17 04:16:14;;;;;;;;;;;;;;;16.57;50.44;102078.22;4936455;29;19926;-88
2023/10/17 04:18:40;;;;;;;;;;;;;;;16.55;50.12;102077.22;4937496;28;20320;-86
2023/10/17 04:21:26;;;;;;;;;;;;;;;16.52;50.22;102075.34;4941145;29;19918;-89
2023/10/17 04:23:52;;;;;;;;;;;;;;;16.47;50.23;102080.38;4946923;28;20316;-87
2023/10/17 04:26:19;;;;;;;;;;;;;;;16.52;50.04;102075.34;4945787;28;20451;-89
2023/10/17 04:28:49;;;;;;;;;;;;;;;16.64;50.73;102081.25;4950272;28;19922;-90
2023/10/17 04:31:24;;;;;;;;;;;;;;;16.87;50.80;102079.78;4937738;29;20395;-89
2023/10/17 04:33:58;;;;;;;;;;;;;;;16.88;51.09;102081.56;4938526;29;19919;-89
2023/10/17 04:36:27;;;;;;;;;;;;;;;16.91;51.34;102083.47;4932175;29;19925;-91
2023/10/17 04:45:13;;;;;;;;;;;;;;;16.46;51.02;102081.19;4952258;28;20166;-89
2023/10/17 04:47:28;;;;;;;;;;;;;;;16.38;50.88;102086.91;4940941;28;19918;-88
2023/10/17 04:49:54;;;;;;;;;;;;;;;16.51;50.68;102091.06;4943722;28;19927;-88
2023/10/17 04:52:40;;;;;;;;;;;;;;;16.45;50.41;102089.06;4931905;28;19945;-89
2023/10/17 04:55:21;;;;;;;;;;;;;;;16.38;50.67;102086.91;4950643;28;20381;-90
2023/10/17 04:57:55;;;;;;;;;;;;;;;16.34;50.60;102085.88;4938037;28;20016;-87
2023/10/17 05:03:14;;;;;;;;;;;;;;;16.33;50.35;102088.41;4949800;28;20415;-86
2023/10/17 05:09:00;;;;;;;;;;;;;;;16.33;50.24;102094.59;4949610;28;19930;-88
2023/10/17 06:17:23;;;;;;;;;;;;;;;16.56;51.93;102122.13;4947341;29;19946;-88
2023/10/17 06:19:50;;;;;;;;;;;;;;;16.39;51.61;102126.53;4950776;29;19914;-90
2023/10/17 06:30:29;;;;;;;;;;;;;;;16.29;50.70;102127.78;4941103;28;19953;-89
2023/10/17 06:35:43;;;;;;;;;;;;;;;16.12;50.53;102131.28;4950952;29;20044;-88
2023/10/17 06:38:09;;;;;;;;;;;;;;;16.25;50.40;102141.63;4936343;29;19982;-90
2023/10/17 06:40:45;;;;;;;;;;;;;;;16.16;50.44;102138.50;4933880;29;20503;-88
2023/10/17 06:43:15;;;;;;;;;;;;;;;16.11;50.44;102133.81;4949902;28;19973;-87
2023/10/17 06:46:11;;;;;;;;;;;;;;;16.08;50.51;102135.47;4935265;29;19919;-89
2023/10/17 06:48:36;;;;;;;;;;;;;;;16.18;50.26;102133.34;4951508;29;19965;-90
2023/10/17 06:53:52;;;;;;;;;;;;;;;16.15;50.36;102136.72;4955803;29;19919;-89
2023/10/17 06:56:17;;;;;;;;;;;;;;;16.16;50.37;102130.59;4955143;29;19989;-89
2023/10/17 06:58:43;;;;;;;;;;;;;;;16.23;51.39;102137.09;4952523;29;19915;-88
2023/10/17 07:01:24;;;;;;;;;;;;;;;16.21;52.40;102129.13;4955566;28;19945;-87
2023/10/17 07:03:54;;;;;;;;;;;;;;;16.20;53.14;102129.94;4956835;28;20050;-88
2023/10/17 07:06:24;;;;;;;;;;;;;;;16.33;52.92;102139.41;4954606;29;19953;-88
2023/10/17 07:08:52;;;;;;;;;;;;;;;16.17;52.87;102140.34;4942802;29;20341;-88
2023/10/17 07:14:40;;;;;;;;;;;;;;;16.24;51.70;102128.38;4955397;29;19919;-89
2023/10/17 07:16:48;;;;;;;;;;;;;;;16.14;51.40;102126.97;4954529;29;19933;-89
2023/10/17 07:24:25;;;;;;;;;;;;;;;16.10;51.40;102135.56;4952434;29;19915;-89
2023/10/17 07:26:54;;;;;;;;;;;;;;;16.15;51.18;102135.78;4966284;29;19920;-89
2023/10/17 07:29:23;;;;;;;;;;;;;;;16.19;50.68;102136.06;4948209;29;19919;-89
2023/10/17 07:31:53;;;;;;;;;;;;;;;16.20;50.95;102134.31;4956589;28;19937;-88
2023/10/17 07:34:22;;;;;;;;;;;;;;;16.19;50.78;102133.44;4946640;29;20001;-87
2023/10/17 07:36:58;;;;;;;;;;;;;;;16.20;50.79;102129.06;4961167;29;19918;-89
2023/10/17 07:39:29;;;;;;;;;;;;;;;16.16;50.72;102129.72;4959526;28;19915;-87
2023/10/17 07:41:55;;;;;;;;;;;;;;;16.11;50.94;102133.81;4953172;29;19918;-88
2023/10/17 07:44:25;;;;;;;;;;;;;;;16.19;50.73;102128.16;4956433;29;19965;-86
2023/10/17 07:47:03;;;;;;;;;;;;;;;16.19;50.87;102132.50;4945046;28;19926;-86
2023/10/17 07:49:30;;;;;;;;;;;;;;;16.00;53.20;102127.97;4948483;29;19918;-87
2023/10/17 07:51:58;;;;;;;;;;;;;;;16.03;54.10;102117.63;4943396;28;19923;-87
2023/10/17 07:54:28;;;;;;;;;;;;;;;15.98;54.47;102113.81;4950234;28;19929;-86
2023/10/17 07:56:58;;;;;;;;;;;;;;;15.97;55.09;102117.28;4942554;29;19922;-87
2023/10/17 07:59:30;;;;;;;;;;;;;;;15.99;53.71;102119.16;4951848;29;19925;-86
2023/10/17 08:02:00;;;;;;;;;;;;;;;16.13;52.72;102119.91;4938278;29;20307;-86
2023/10/17 08:04:30;;;;;;;;;;;;;;;16.24;52.21;102109.94;4948173;28;19958;-87
2023/10/17 08:06:56;;;;;;;;;;;;;;;16.23;51.78;102121.28;4952188;29;19922;-87
2023/10/17 08:11:51;;;;;;;;;;;;;;;16.24;51.55;102102.94;4943563;28;20368;-87
2023/10/17 08:14:26;;;;;;;;;;;;;;;16.29;51.36;102106.69;4942321;29;19934;-87
2023/10/17 08:16:55;;;;;;;;;;;;;;;16.33;51.27;102098.97;4960161;28;20024;-87
2023/10/17 08:19:22;;;;;;;;;;;;;;;16.29;51.12;102105.78;4973678;28;19940;-88
2023/10/17 08:22:10;;;;;;;;;;;;;;;16.47;50.79;102109.41;4956073;28;19941;-87
2023/10/17 08:29:48;;;;;;;;;;;;;;;16.37;50.83;102106.22;4951306;28;20000;-86
2023/10/17 08:32:38;;;;;;;;;;;;;;;16.39;50.52;102105.44;4948164;28;20312;-86
2023/10/17 08:35:03;;;;;;;;;;;;;;;16.40;50.73;102102.00;4956814;28;19929;-86
2023/10/17 08:37:43;;;;;;;;;;;;;;;16.32;51.32;102105.03;4972595;28;20017;-86
2023/10/17 08:43:19;;;;;;;;;;;;;;;15.91;55.30;102096.78;4948108;28;19929;-87
2023/10/17 08:45:49;;;;;;;;;;;;;;;15.89;55.85;102106.31;4970061;28;19919;-87
2023/10/17 08:48:15;;;;;;;;;;;;;;;15.98;54.83;102098.00;4952227;28;19921;-87
2023/10/17 08:50:40;;;;;;;;;;;;;;;16.08;53.36;102103.84;4949370;28;19918;-87
2023/10/17 08:55:44;;;;;;;;;;;;;;;16.25;52.15;102096.81;4939017;29;19957;-87
2023/10/17 08:58:09;;;;;;;;;;;;;;;16.28;51.96;102093.47;4954888;28;20400;-87
2023/10/17 09:03:10;;;;;;;;;;;;;;;16.28;51.68;102086.44;4948049;28;19918;-87
2023/10/17 09:05:58;;;;;;;;;;;;;;;16.25;51.69;102091.53;4934472;28;19929;-87
2023/10/17 09:08:45;;;;;;;;;;;;;;;16.40;51.24;102087.91;4962546;28;19918;-87
2023/10/17 09:11:14;;;;;;;;;;;;;;;16.32;51.46;102076.97;4971737;28;19925;-86
2023/10/17 09:16:15;;;;;;;;;;;;;;;16.36;51.17;102075.38;4969799;28;20457;-87
2023/10/17 09:18:54;;;;;;;;;;;;;;;16.33;51.14;102069.97;4953053;28;19973;-86
2023/10/17 09:21:20;;;;;;;;;;;;;;;16.28;51.22;102068.00;4969806;28;19918;-86
2023/10/17 09:23:46;;;;;;;;;;;;;;;16.28;51.09;102072.38;4939293;28;19961;-87
2023/10/17 09:26:11;;;;;;;;;;;;;;;16.28;51.28;102068.00;4944200;28;20356;-87
2023/10/17 09:28:39;;;;;;;;;;;;;;;16.19;52.85;102066.59;4940872;28;19922;-87
2023/10/17 09:31:09;;;;;;;;;;;;;;;15.96;54.64;102068.03;4947377;28;20001;-87
2023/10/17 09:34:13;;;;;;;;;;;;;;;15.87;55.70;102061.47;4937662;28;20009;-87
2023/10/17 09:36:49;;;;;;;;;;;;;;;15.85;56.23;102062.19;4971241;28;19921;-86
2023/10/17 09:39:18;;;;;;;;;;;;;;;16.07;54.28;102056.34;4935847;29;19915;-86
2023/10/17 09:41:44;;;;;;;;;;;;;;;16.16;53.27;102048.00;4945943;28;20355;-85
2023/10/17 09:44:10;;;;;;;;;;;;;;;16.28;52.50;102043.38;4955436;28;19914;-86
2023/10/17 09:46:56;;;;;;;;;;;;;;;16.24;52.46;102047.56;4972480;28;19918;-86
2023/10/17 09:49:27;;;;;;;;;;;;;;;16.21;52.17;102038.59;4950320;29;20439;-86
2023/10/17 09:51:57;;;;;;;;;;;;;;;16.29;51.90;102037.25;4947160;28;19929;-86
2023/10/17 09:54:37;;;;;;;;;;;;;;;16.26;51.86;102035.38;4919869;28;19922;-86
2023/10/17 09:57:08;;;;;;;;;;;;;;;16.36;51.42;102038.47;4961002;28;20412;-87
2023/10/17 09:59:36;;;;;;;;;;;;;;;16.26;51.67;102032.75;4968592;28;19922;-87
2023/10/17 10:02:02;;;;;;;;;;;;;;;16.31;51.39;102037.34;4939195;28;19914;-87
2023/10/17 10:04:28;;;;;;;;;;;;;;;16.28;51.56;102033.72;4954911;28;19914;-89
2023/10/17 10:07:14;;;;;;;;;;;;;;;16.31;51.44;102029.44;4953686;28;19914;-83
2023/10/17 10:09:40;;;;;;;;;;;;;;;16.31;51.41;102032.97;4970523;28;19914;-87
2023/10/17 10:12:07;;;;;;;;;;;;;;;16.30;51.37;102028.53;4951975;28;19922;-86
2023/10/17 10:14:36;;;;;;;;;;;;;;;16.34;51.13;102021.66;4937957;28;19922;-86
2023/10/17 10:17:05;;;;;;;;;;;;;;;16.29;51.26;102011.78;4952317;28;19922;-84
2023/10/17 10:19:44;;;;;;;;;;;;;;;16.08;54.03;102013.34;4922302;28;20194;-85
2023/10/17 10:22:13;;;;;;;;;;;;;;;15.86;55.41;102000.78;4950315;28;19922;-87
2023/10/17 10:24:39;;;;;;;;;;;;;;;15.81;56.26;101997.94;4969797;28;19922;-86
2023/10/17 10:27:08;;;;;;;;;;;;;;;15.83;56.51;101988.38;4936565;28;20001;-86
2023/10/17 10:29:33;;;;;;;;;;;;;;;16.11;54.06;101974.00;4969335;28;20022;-86
2023/10/17 10:32:05;;;;;;;;;;;;;;;16.22;53.20;101969.25;4952579;28;20335;-86
2023/10/17 10:34:35;;;;;;;;;;;;;;;16.24;52.68;101962.31;4956219;28;19922;-86
2023/10/17 10:37:01;;;;;;;;;;;;;;;16.28;52.27;101962.56;4954714;28;19953;-86
2023/10/17 10:39:26;;;;;;;;;;;;;;;16.29;51.94;101961.72;4954863;28;19964;-88
2023/10/17 10:41:58;;;;;;;;;;;;;;;16.33;51.72;101961.88;4954870;28;19922;-86
2023/10/17 10:44:25;;;;;;;;;;;;;;;16.28;51.74;101954.66;4930083;29;20368;-85
2023/10/17 10:46:52;;;;;;;;;;;;;;;16.30;51.68;101960.00;4953521;28;20001;-86
2023/10/17 10:49:24;;;;;;;;;;;;;;;16.40;51.46;101953.44;4957096;28;19925;-85
2023/10/17 10:51:50;;;;;;;;;;;;;;;16.35;51.20;101958.47;4934555;29;19926;-86
2023/10/17 10:54:17;;;;;;;;;;;;;;;16.40;51.25;101962.28;4949910;28;19922;-86
2023/10/17 10:56:52;;;;;;;;;;;;;;;16.44;51.06;101958.03;4944941;28;20443;-86
2023/10/17 10:59:21;;;;;;;;;;;;;;;16.43;50.99;101961.50;4928646;28;19918;-86
2023/10/17 11:01:49;;;;;;;;;;;;;;;16.42;51.11;101955.31;4950228;28;19914;-87
2023/10/17 11:04:15;;;;;;;;;;;;;;;16.46;50.78;101951.09;4969646;28;19956;-87
2023/10/17 11:06:41;;;;;;;;;;;;;;;16.54;50.59;101954.13;4947907;29;19961;-88
2023/10/17 11:09:09;;;;;;;;;;;;;;;16.21;53.46;101954.25;4952811;28;20016;-89
2023/10/17 11:11:46;;;;;;;;;;;;;;;16.00;55.27;101955.00;4948997;28;19915;-88
2023/10/17 11:14:18;;;;;;;;;;;;;;;16.00;55.98;101944.47;4955038;28;19918;-87
2023/10/17 11:16:43;;;;;;;;;;;;;;;15.94;56.47;101943.22;4957495;28;19929;-86
2023/10/17 11:19:19;;;;;;;;;;;;;;;16.38;54.08;101948.09;4957115;28;19914;-86
2023/10/17 11:21:52;;;;;;;;;;;;;;;16.32;53.12;101942.53;4955366;28;20343;-85
2023/10/17 11:24:17;;;;;;;;;;;;;;;16.34;52.54;101932.97;4945666;28;19965;-85
2023/10/17 11:26:44;;;;;;;;;;;;;;;16.37;51.94;101927.81;4943906;28;20582;-85
2023/10/17 11:29:09;;;;;;;;;;;;;;;16.39;51.94;101930.56;4949455;29;20380;-85
2023/10/17 11:31:35;;;;;;;;;;;;;;;16.42;51.56;101928.03;4945506;28;19925;-84
2023/10/17 11:34:16;;;;;;;;;;;;;;;16.45;51.44;101930.84;4949268;28;20021;-85
2023/10/17 11:36:49;;;;;;;;;;;;;;;16.54;51.10;101938.31;4934279;29;19915;-85
2023/10/17 11:39:18;;;;;;;;;;;;;;;16.53;51.19;101925.94;4934088;29;19915;-86
2023/10/17 11:41:53;;;;;;;;;;;;;;;16.53;51.04;101933.84;4947488;28;20348;-86
2023/10/17 11:44:23;;;;;;;;;;;;;;;16.57;50.73;101928.78;4957629;28;19918;-85
2023/10/17 11:46:55;;;;;;;;;;;;;;;16.54;50.83;101927.75;4957129;28;19914;-86
2023/10/17 11:49:43;;;;;;;;;;;;;;;16.75;50.31;101925.25;4958209;28;19914;-85
2023/10/17 11:52:09;;;;;;;;;;;;;;;16.71;50.51;101921.53;4961222;28;20392;-89
2023/10/17 11:55:00;;;;;;;;;;;;;;;16.67;50.42;101907.28;4953507;28;19922;-87
2023/10/17 11:57:27;;;;;;;;;;;;;;;16.79;50.49;101914.91;4976174;28;19925;-86
2023/10/17 11:59:57;;;;;;;;;;;;;;;16.50;53.05;101910.88;4940313;28;19918;-87
2023/10/17 12:02:23;;;;;;;;;;;;;;;16.31;54.72;101908.19;4935676;28;19921;-87
2023/10/17 12:04:49;;;;;;;;;;;;;;;16.31;55.38;101910.81;4942344;28;20287;-89
2023/10/17 12:07:15;;;;;;;;;;;;;;;16.26;55.56;101907.97;4956542;28;19925;-86
2023/10/17 12:09:40;;;;;;;;;;;;;;;16.43;53.65;101906.16;4938852;28;19938;-86
2023/10/17 12:12:06;;;;;;;;;;;;;;;16.55;52.54;101901.47;4956048;28;20366;-86
2023/10/17 12:14:32;;;;;;;;;;;;;;;16.55;52.17;101896.19;4955815;28;20491;-86
2023/10/17 12:17:00;;;;;;;;;;;;;;;16.64;51.73;101899.25;4934899;28;20351;-86
2023/10/17 12:19:26;;;;;;;;;;;;;;;16.76;51.20;101900.66;4938405;29;19994;-86
2023/10/17 12:21:53;;;;;;;;;;;;;;;16.76;51.08;101896.25;4940765;28;20288;-86
2023/10/17 12:24:19;;;;;;;;;;;;;;;16.71;51.09;101894.28;4956576;28;19972;-87
2023/10/17 12:26:49;;;;;;;;;;;;;;;16.69;51.09;101889.81;4942544;28;19973;-86
2023/10/17 12:29:15;;;;;;;;;;;;;;;16.73;50.92;101889.97;4945724;28;19921;-87
2023/10/17 12:31:40;;;;;;;;;;;;;;;16.79;50.61;101891.16;4952785;28;19914;-86
2023/10/17 12:34:07;;;;;;;;;;;;;;;16.85;50.60;101893.22;4939038;28;19922;-86
2023/10/17 12:36:42;;;;;;;;;;;;;;;16.90;50.23;101889.03;4973893;28;20006;-86
2023/10/17 12:39:08;;;;;;;;;;;;;;;16.84;50.44;101887.00;4973428;28;20380;-87
2023/10/17 12:41:35;;;;;;;;;;;;;;;16.88;50.22;101881.06;4952100;28;19964;-87
2023/10/17 12:44:01;;;;;;;;;;;;;;;16.86;50.45;101881.81;4937346;29;19937;-87
2023/10/17 12:46:26;;;;;;;;;;;;;;;16.92;50.23;101883.84;4945274;28;20345;-88
2023/10/17 12:48:52;;;;;;;;;;;;;;;16.76;51.59;101871.63;4937202;28;19919;-87
2023/10/17 12:51:21;;;;;;;;;;;;;;;16.43;54.20;101878.03;4949234;28;19957;-87
2023/10/17 12:53:50;;;;;;;;;;;;;;;16.29;55.47;101873.81;4956616;28;19918;-88
2023/10/17 12:56:20;;;;;;;;;;;;;;;16.28;55.72;101877.31;4953915;28;19914;-87
2023/10/17 12:58:46;;;;;;;;;;;;;;;16.52;54.03;101867.03;4937623;29;20070;-89
2023/10/17 13:01:12;;;;;;;;;;;;;;;16.59;52.70;101866.47;4935888;28;20433;-88
2023/10/17 13:03:38;;;;;;;;;;;;;;;16.59;52.18;101863.81;4946805;28;19919;-87
2023/10/17 13:06:04;;;;;;;;;;;;;;;16.75;51.49;101864.56;4937053;28;19914;-87
2023/10/17 13:08:30;;;;;;;;;;;;;;;16.75;51.13;101862.81;4954779;28;19914;-88
2023/10/17 13:10:57;;;;;;;;;;;;;;;16.78;50.95;101856.78;4952145;29;19930;-88
2023/10/17 13:13:23;;;;;;;;;;;;;;;16.77;50.93;101855.88;4931431;28;19950;-88
2023/10/17 13:15:48;;;;;;;;;;;;;;;16.77;50.73;101849.72;4948500;28;20020;-88
2023/10/17 13:18:14;;;;;;;;;;;;;;;16.75;50.91;101847.00;4945884;28;19954;-87
2023/10/17 13:20:48;;;;;;;;;;;;;;;16.79;50.86;101848.06;4926944;28;20387;-87
2023/10/17 13:23:17;;;;;;;;;;;;;;;16.83;50.71;101848.28;4940912;28;19914;-86
2023/10/17 13:25:43;;;;;;;;;;;;;;;16.78;50.65;101844.47;4955838;28;19972;-87
2023/10/17 13:28:09;;;;;;;;;;;;;;;16.78;50.76;101840.94;4927706;29;19914;-87
2023/10/17 13:30:35;;;;;;;;;;;;;;;16.80;50.60;101842.84;4949922;28;20363;-87
2023/10/17 13:33:01;;;;;;;;;;;;;;;16.82;50.54;101837.66;4950508;28;19950;-87
2023/10/17 13:35:28;;;;;;;;;;;;;;;16.78;50.55;101828.66;4963486;28;19926;-87
2023/10/17 13:37:55;;;;;;;;;;;;;;;16.81;51.18;101835.88;4955030;28;19914;-87
2023/10/17 13:40:22;;;;;;;;;;;;;;;16.55;53.71;101818.78;4952167;28;20404;-86
2023/10/17 13:42:51;;;;;;;;;;;;;;;16.45;54.62;101831.56;4941156;28;20300;-86
2023/10/17 13:45:23;;;;;;;;;;;;;;;16.36;55.71;101831.13;4938237;28;19918;-87
2023/10/17 13:47:49;;;;;;;;;;;;;;;16.50;55.22;101829.13;4939801;28;19914;-88
2023/10/17 13:50:16;;;;;;;;;;;;;;;16.60;53.38;101828.72;4953886;28;19914;-88
2023/10/17 13:52:42;;;;;;;;;;;;;;;16.66;52.34;101833.41;4943272;28;19919;-86
2023/10/17 13:55:14;;;;;;;;;;;;;;;16.67;52.10;101832.53;4953745;28;19929;-88
2023/10/17 13:57:42;;;;;;;;;;;;;;;16.66;51.82;101831.66;4959526;28;20320;-85
2023/10/17 14:00:09;;;;;;;;;;;;;;;16.74;51.59;101834.63;4955096;28;19918;-86
2023/10/17 14:02:35;;;;;;;;;;;;;;;16.79;51.38;101835.75;4954660;28;19914;-87
2023/10/17 14:05:01;;;;;;;;;;;;;;;16.76;51.36;101832.06;4972146;28;20363;-87
2023/10/17 14:07:27;;;;;;;;;;;;;;;16.77;51.10;101823.34;4925337;28;19926;-87
2023/10/17 14:09:55;;;;;;;;;;;;;;;16.81;51.04;101820.94;4952909;28;20399;-86
2023/10/17 14:12:21;;;;;;;;;;;;;;;16.86;50.82;101826.41;4933230;28;19914;-86
2023/10/17 14:14:47;;;;;;;;;;;;;;;16.86;50.77;101819.41;4944330;28;20058;-85
2023/10/17 14:17:12;;;;;;;;;;;;;;;16.95;50.48;101821.53;4952480;28;20008;-86
2023/10/17 14:19:44;;;;;;;;;;;;;;;16.86;50.72;101829.06;4920002;29;19937;-86
2023/10/17 14:27:22;;;;;;;;;;;;;;;16.94;50.54;101827.66;4955452;28;19918;-86
2023/10/17 14:29:51;;;;;;;;;;;;;;;16.62;53.34;101826.16;4949835;29;19977;-85
2023/10/17 14:32:17;;;;;;;;;;;;;;;16.45;54.87;101834.19;4960386;28;19942;-87
2023/10/17 14:34:43;;;;;;;;;;;;;;;16.52;55.12;101837.13;4948548;28;19929;-85
2023/10/17 14:37:09;;;;;;;;;;;;;;;16.46;55.67;101835.97;4953244;28;19918;-85
2023/10/17 14:39:34;;;;;;;;;;;;;;;16.66;53.69;101834.28;4948417;28;19921;-87
2023/10/17 14:42:00;;;;;;;;;;;;;;;16.75;52.76;101833.81;4946678;28;19914;-87
2023/10/17 14:44:29;;;;;;;;;;;;;;;16.78;51.89;101820.75;4953973;28;20094;-85
2023/10/17 14:46:54;;;;;;;;;;;;;;;16.79;51.67;101819.94;4966902;28;20005;-87
2023/10/17 14:49:21;;;;;;;;;;;;;;;16.77;51.69;101816.31;4952601;28;19998;-87
2023/10/17 14:51:47;;;;;;;;;;;;;;;16.76;51.51;101810.97;4954549;28;19929;-86
2023/10/17 14:54:13;;;;;;;;;;;;;;;16.82;51.25;101806.00;4926445;29;20374;-84
2023/10/17 14:56:42;;;;;;;;;;;;;;;16.82;51.30;101811.28;4953064;28;19956;-86
2023/10/17 14:59:08;;;;;;;;;;;;;;;16.82;51.19;101813.91;4955213;28;19954;-91
2023/10/17 15:01:36;;;;;;;;;;;;;;;16.85;50.89;101812.31;4951938;28;19962;-89
2023/10/17 15:04:02;;;;;;;;;;;;;;;16.87;50.82;101805.38;4944665;28;19927;-86
2023/10/17 15:06:32;;;;;;;;;;;;;;;16.93;50.65;101809.13;4968313;28;20017;-88
2023/10/17 15:08:57;;;;;;;;;;;;;;;16.80;51.08;101803.28;4934395;28;19969;-88
2023/10/17 15:11:23;;;;;;;;;;;;;;;16.83;50.85;101795.53;4941112;28;20356;-88
2023/10/17 15:13:50;;;;;;;;;;;;;;;16.89;50.81;101784.34;4939037;28;20354;-87